< Typhoon 197721 1978 Season Typhoon 197802 >
Typhoon 197801 (NADINE)
General InformationTrack Information on Google MapsDetailed Wind Information || Disaster Info.ResourceGoogle EarthGE AnimationAtom FeedGeoJSON
Detalied Best Track (Time Zone = UTC)
Year Month Day Hour Lat. Long. Pressure (hPa) Wind (kt) Class Image Chart
1978 1 6 00 5.5 169.0 1004 0 2 -- Chart
1978 1 6 06 6.1 168.0 1004 0 2 -- Chart
1978 1 6 12 6.5 167.0 1004 0 2 -- Chart
1978 1 6 18 7.0 166.1 1002 0 2 -- Chart
1978 1 7 00 7.5 165.5 1002 0 2 -- Chart
1978 1 7 06 7.8 164.9 1000 0 2 -- Chart
1978 1 7 12 8.2 164.1 1000 0 2 -- Chart
1978 1 7 18 8.6 163.3 1000 0 2 -- Chart
1978 1 8 00 9.0 162.3 1000 0 2 -- Chart
1978 1 8 06 9.3 161.7 996 0 2 -- Chart
1978 1 8 12 9.4 161.5 996 0 2 -- Chart
1978 1 8 18 9.4 161.5 996 0 2 -- Chart
1978 1 9 00 9.4 161.5 996 0 2 -- Chart
1978 1 9 06 9.6 161.3 996 0 2 -- Chart
1978 1 9 12 9.8 161.1 996 0 2 -- Chart
1978 1 9 18 10.5 161.3 996 0 2 -- Chart
1978 1 10 00 11.0 161.4 996 0 2 -- Chart
1978 1 10 06 11.9 160.9 990 35 3 -- Chart
1978 1 10 12 12.7 160.5 985 40 3 -- Chart
1978 1 10 18 13.6 160.3 985 45 3 -- Chart
1978 1 11 00 14.4 160.5 980 45 3 -- Chart
1978 1 11 06 15.3 161.1 980 45 3 -- Chart
1978 1 11 12 16.0 161.7 980 45 3 -- Chart
1978 1 11 18 16.7 162.8 975 55 4 -- Chart
1978 1 12 00 17.3 164.4 975 55 4 -- Chart
1978 1 12 06 17.7 166.2 975 55 4 -- Chart
1978 1 12 12 18.8 168.5 975 55 4 -- Chart
1978 1 12 18 20.2 171.0 970 50 4 -- Chart
1978 1 13 00 21.6 173.1 970 50 4 -- Chart
1978 1 13 06 22.6 177.0 980 45 3 -- Chart
1978 1 13 12 24.1 181.0 990 45 3 -- Chart
Japan Meteorological Agency Best Track Data | Correction Date : 1992-10-21
< Typhoon 197721 1978 Season Typhoon 197802 >

Help